createdAt,value
2023-03-11T00:00:23.164Z,99.99
2023-03-11T00:01:23.126Z,99.99
2023-03-11T00:02:23.122Z,99.99
2023-03-11T00:03:23.128Z,99.99
2023-03-11T00:04:23.065Z,99.99
2023-03-11T00:05:23.114Z,99.99
2023-03-11T00:06:23.038Z,99.99
2023-03-11T00:07:23.006Z,99.99
2023-03-11T00:08:22.984Z,99.99
2023-03-11T00:09:22.969Z,99.99
2023-03-11T00:10:22.982Z,99.99
2023-03-11T00:11:22.937Z,99.99
2023-03-11T00:12:22.912Z,99.99
2023-03-11T00:13:22.950Z,99.99
2023-03-11T00:14:22.883Z,99.99
2023-03-11T00:15:22.889Z,99.99
2023-03-11T00:16:22.850Z,99.99
2023-03-11T00:17:22.828Z,99.99
2023-03-11T00:18:22.802Z,99.99
2023-03-11T00:19:22.784Z,99.99
2023-03-11T00:20:22.797Z,99.99
2023-03-11T00:21:22.737Z,99.99
2023-03-11T00:22:22.718Z,99.99
2023-03-11T00:23:22.708Z,99.99
2023-03-11T00:24:22.682Z,99.99
2023-03-11T00:25:22.690Z,99.99
2023-03-11T00:26:22.644Z,99.99
2023-03-11T00:27:22.633Z,99.99
2023-03-11T00:28:22.611Z,99.99
2023-03-11T00:29:22.586Z,99.99
2023-03-11T00:30:22.609Z,99.99
2023-03-11T00:31:22.616Z,99.99
2023-03-11T00:32:22.608Z,99.99
2023-03-11T00:33:22.539Z,99.99
2023-03-11T00:34:22.484Z,99.99
2023-03-11T00:35:22.502Z,99.99
2023-03-11T00:36:22.448Z,99.99
2023-03-11T00:37:22.423Z,99.99
2023-03-11T00:38:22.445Z,99.99
2023-03-11T00:39:22.382Z,99.99
2023-03-11T00:40:22.397Z,99.99
2023-03-11T00:41:22.347Z,99.99
2023-03-11T00:42:22.323Z,99.99
2023-03-11T00:43:22.312Z,99.99
2023-03-11T00:44:22.289Z,99.99
2023-03-11T00:45:22.311Z,99.73
2023-03-11T00:46:22.285Z,99.37
2023-03-11T00:47:22.227Z,99.63
2023-03-11T00:48:22.210Z,99.00
2023-03-11T00:49:22.190Z,98.74
2023-03-11T00:50:22.217Z,99.73
2023-03-11T00:51:22.149Z,99.00
2023-03-11T00:52:22.134Z,98.95
2023-03-11T00:53:22.109Z,98.74
2023-03-11T00:54:22.130Z,98.85
2023-03-11T00:55:22.068Z,98.64
2023-03-11T00:56:22.076Z,98.43
2023-03-11T00:57:22.034Z,98.01
2023-03-11T00:58:22.010Z,97.91
2023-03-11T00:59:21.996Z,98.47
2023-03-11T01:00:21.981Z,98.47
2023-03-11T01:01:22.034Z,97.74
2023-03-11T01:02:21.936Z,97.22
2023-03-11T01:03:21.921Z,96.90
2023-03-11T01:04:21.973Z,96.06
2023-03-11T01:05:21.878Z,96.27
2023-03-11T01:06:22.541Z,96.33
2023-03-11T01:07:21.839Z,96.80
2023-03-11T01:08:21.817Z,96.44
2023-03-11T01:09:21.798Z,96.23
2023-03-11T01:10:21.783Z,96.37
2023-03-11T01:11:21.796Z,95.70
2023-03-11T01:12:21.735Z,95.07
2023-03-11T01:13:21.712Z,95.23
2023-03-11T01:14:21.694Z,95.12
2023-03-11T01:15:21.724Z,95.12
2023-03-11T01:16:21.751Z,95.96
2023-03-11T01:17:21.637Z,95.75
2023-03-11T01:18:21.617Z,94.91
2023-03-11T01:19:21.594Z,95.01
2023-03-11T01:20:21.580Z,95.23
2023-03-11T01:21:21.584Z,96.27
2023-03-11T01:22:21.539Z,96.23
2023-03-11T01:23:21.514Z,96.55
2023-03-11T01:24:21.496Z,96.23
2023-03-11T01:25:21.478Z,95.75
2023-03-11T01:26:21.488Z,95.60
2023-03-11T01:27:21.439Z,94.66
2023-03-11T01:28:21.430Z,95.29
2023-03-11T01:29:21.405Z,95.33
2023-03-11T01:30:21.393Z,95.12
2023-03-11T01:31:21.449Z,95.23
2023-03-11T01:32:21.399Z,95.12
2023-03-11T01:33:21.324Z,94.91
2023-03-11T01:34:21.344Z,94.81
2023-03-11T01:35:21.288Z,94.91
2023-03-11T01:36:21.289Z,94.60
2023-03-11T01:37:21.284Z,94.60
2023-03-11T01:38:21.225Z,95.43
2023-03-11T01:39:21.200Z,94.60
2023-03-11T01:40:21.227Z,95.23
2023-03-11T01:41:21.199Z,94.60
2023-03-11T01:42:21.144Z,94.49
2023-03-11T01:43:21.169Z,95.43
2023-03-11T01:44:21.114Z,95.01
2023-03-11T01:45:21.085Z,95.54
2023-03-11T01:46:21.139Z,94.60
2023-03-11T01:47:21.042Z,94.85
2023-03-11T01:48:21.022Z,95.01
2023-03-11T01:49:21.041Z,95.33
2023-03-11T01:50:20.995Z,94.70
2023-03-11T01:51:20.965Z,94.38
2023-03-11T01:52:20.947Z,94.70
2023-03-11T01:53:20.932Z,95.01
2023-03-11T01:54:20.938Z,94.60
2023-03-11T01:55:20.890Z,94.28
2023-03-11T01:56:20.900Z,94.07
2023-03-11T01:57:20.854Z,95.43
2023-03-11T01:58:20.829Z,95.33
2023-03-11T01:59:20.819Z,95.01
2023-03-11T02:00:20.785Z,94.91
2023-03-11T02:01:20.844Z,94.34
2023-03-11T02:02:20.748Z,94.91
2023-03-11T02:03:20.811Z,94.87
2023-03-11T02:04:20.717Z,95.01
2023-03-11T02:05:20.689Z,95.23
2023-03-11T02:06:20.701Z,94.81
2023-03-11T02:07:20.655Z,94.91
2023-03-11T02:08:20.622Z,95.12
2023-03-11T02:09:20.621Z,94.81
2023-03-11T02:10:20.591Z,94.38
2023-03-11T02:11:20.617Z,94.70
2023-03-11T02:12:20.557Z,94.81
2023-03-11T02:13:20.548Z,95.23
2023-03-11T02:14:20.519Z,94.91
2023-03-11T02:15:20.496Z,94.60
2023-03-11T02:16:20.551Z,94.91
2023-03-11T02:17:20.466Z,95.01
2023-03-11T02:18:20.480Z,95.48
2023-03-11T02:19:20.421Z,95.01
2023-03-11T02:20:20.414Z,94.91
2023-03-11T02:21:20.419Z,95.54
2023-03-11T02:22:20.369Z,94.91
2023-03-11T02:23:20.365Z,95.27
2023-03-11T02:24:20.331Z,95.12
2023-03-11T02:25:20.318Z,95.27
2023-03-11T02:26:20.324Z,95.23
2023-03-11T02:27:20.273Z,94.91
2023-03-11T02:28:20.257Z,95.54
2023-03-11T02:29:20.251Z,95.43
2023-03-11T02:30:20.223Z,94.91
2023-03-11T02:31:20.239Z,95.23
2023-03-11T02:32:20.243Z,95.12
2023-03-11T02:33:20.157Z,95.23
2023-03-11T02:34:20.144Z,95.17
2023-03-11T02:35:20.124Z,95.33
2023-03-11T02:36:20.134Z,95.37
2023-03-11T02:37:20.088Z,95.79
2023-03-11T02:38:20.073Z,96.31
2023-03-11T02:39:20.044Z,96.31
2023-03-11T02:40:20.025Z,96.21
2023-03-11T02:41:20.033Z,96.42
2023-03-11T02:42:19.989Z,96.63
2023-03-11T02:43:19.981Z,96.21
2023-03-11T02:44:19.944Z,96.31
2023-03-11T02:45:19.932Z,96.42
2023-03-11T02:46:19.999Z,96.31
2023-03-11T02:47:19.892Z,96.53
2023-03-11T02:48:19.878Z,96.31
2023-03-11T02:49:19.857Z,96.84
2023-03-11T02:50:19.835Z,95.68
2023-03-11T02:51:19.837Z,95.48
2023-03-11T02:52:19.791Z,95.90
2023-03-11T02:53:19.782Z,95.68
2023-03-11T02:54:19.751Z,95.27
2023-03-11T02:55:19.736Z,94.81
2023-03-11T02:56:19.749Z,95.27
2023-03-11T02:57:19.701Z,95.06
2023-03-11T02:58:19.692Z,96.00
2023-03-11T02:59:19.678Z,95.86
2023-03-11T03:00:19.656Z,96.31
2023-03-11T03:01:19.726Z,96.80
2023-03-11T03:02:19.609Z,96.11
2023-03-11T03:03:19.593Z,96.21
2023-03-11T03:04:19.659Z,95.75
2023-03-11T03:05:19.557Z,96.73
2023-03-11T03:06:19.576Z,96.90
2023-03-11T03:07:19.521Z,96.27
2023-03-11T03:08:19.506Z,96.69
2023-03-11T03:09:19.514Z,96.31
2023-03-11T03:10:19.499Z,96.80
2023-03-11T03:11:19.475Z,96.90
2023-03-11T03:12:19.425Z,97.00
2023-03-11T03:13:19.406Z,96.90
2023-03-11T03:14:19.395Z,97.00
2023-03-11T03:15:19.381Z,96.59
2023-03-11T03:16:19.431Z,96.84
2023-03-11T03:17:19.363Z,96.80
2023-03-11T03:18:19.321Z,97.00
2023-03-11T03:19:19.440Z,97.22
2023-03-11T03:20:19.281Z,97.36
2023-03-11T03:21:19.291Z,97.42
2023-03-11T03:22:19.251Z,97.00
2023-03-11T03:23:19.226Z,97.53
2023-03-11T03:24:19.207Z,97.63
2023-03-11T03:25:19.189Z,97.53
2023-03-11T03:26:19.172Z,98.41
2023-03-11T03:27:19.178Z,98.21
2023-03-11T03:28:19.142Z,98.58
2023-03-11T03:29:19.112Z,98.52
2023-03-11T03:30:19.095Z,98.26
2023-03-11T03:31:19.175Z,98.62
2023-03-11T03:32:19.183Z,98.26
2023-03-11T03:33:19.041Z,97.53
2023-03-11T03:34:19.021Z,97.22
2023-03-11T03:35:18.998Z,96.90
2023-03-11T03:36:18.978Z,97.22
2023-03-11T03:37:18.990Z,97.00
2023-03-11T03:38:18.937Z,96.90
2023-03-11T03:39:18.916Z,96.90
2023-03-11T03:40:18.902Z,96.73
2023-03-11T03:41:18.887Z,97.26
2023-03-11T03:42:18.890Z,97.16
2023-03-11T03:43:18.851Z,97.26
2023-03-11T03:44:18.852Z,97.36
2023-03-11T03:45:18.807Z,97.42
2023-03-11T03:46:18.865Z,97.47
2023-03-11T03:47:18.805Z,96.94
2023-03-11T03:48:18.756Z,97.16
2023-03-11T03:49:18.738Z,97.16
2023-03-11T03:50:18.732Z,97.16
2023-03-11T03:51:18.754Z,97.78
2023-03-11T03:52:18.713Z,98.31
2023-03-11T03:53:18.665Z,98.52
2023-03-11T03:54:18.646Z,98.72
2023-03-11T03:55:18.634Z,98.52
2023-03-11T03:56:18.616Z,98.52
2023-03-11T03:57:18.627Z,98.72
2023-03-11T03:58:18.580Z,98.47
2023-03-11T03:59:18.562Z,98.62
2023-03-11T04:00:18.538Z,98.72
2023-03-11T04:01:18.532Z,98.37
2023-03-11T04:02:18.606Z,98.47
2023-03-11T04:03:18.645Z,98.41
2023-03-11T04:04:18.477Z,98.47
2023-03-11T04:05:18.455Z,98.58
2023-03-11T04:06:18.436Z,98.37
2023-03-11T04:07:18.447Z,97.99
2023-03-11T04:08:18.410Z,98.05
2023-03-11T04:09:18.385Z,98.83
2023-03-11T04:10:18.362Z,98.83
2023-03-11T04:11:18.337Z,98.83
2023-03-11T04:12:18.348Z,98.72
2023-03-11T04:13:19.302Z,98.79
2023-03-11T04:14:18.300Z,98.94
2023-03-11T04:15:18.435Z,98.79
2023-03-11T04:16:18.443Z,98.83
2023-03-11T04:17:18.262Z,98.89
2023-03-11T04:18:18.218Z,98.89
2023-03-11T04:19:18.211Z,99.00
2023-03-11T04:20:18.189Z,99.05
2023-03-11T04:21:18.160Z,98.89
2023-03-11T04:22:18.175Z,98.05
2023-03-11T04:23:18.120Z,98.68
2023-03-11T04:24:18.100Z,98.79
2023-03-11T04:25:18.100Z,98.58
2023-03-11T04:26:18.058Z,98.79
2023-03-11T04:27:18.071Z,98.16
2023-03-11T04:28:18.019Z,98.79
2023-03-11T04:29:18.000Z,99.00
2023-03-11T04:30:17.987Z,99.00
2023-03-11T04:31:18.013Z,98.89
2023-03-11T04:32:17.997Z,98.89
2023-03-11T04:33:17.931Z,98.79
2023-03-11T04:34:17.912Z,98.79
2023-03-11T04:35:17.895Z,98.89
2023-03-11T04:36:17.884Z,98.79
2023-03-11T04:37:17.895Z,98.89
2023-03-11T04:38:17.841Z,99.00
2023-03-11T04:39:17.819Z,99.00
2023-03-11T04:40:17.800Z,99.00
2023-03-11T04:41:17.777Z,98.68
2023-03-11T04:42:17.793Z,99.00
2023-03-11T04:43:17.744Z,98.89
2023-03-11T04:44:17.721Z,98.68
2023-03-11T04:45:17.704Z,99.00
2023-03-11T04:46:17.738Z,98.58
2023-03-11T04:47:17.691Z,99.15
2023-03-11T04:48:17.646Z,98.47
2023-03-11T04:49:17.632Z,99.10
2023-03-11T04:50:17.613Z,98.58
2023-03-11T04:51:17.593Z,99.00
2023-03-11T04:52:17.606Z,99.04
2023-03-11T04:53:17.560Z,98.89
2023-03-11T04:54:17.542Z,98.79
2023-03-11T04:55:17.528Z,98.05
2023-03-11T04:56:17.502Z,98.05
2023-03-11T04:57:17.525Z,97.68
2023-03-11T04:58:17.464Z,98.41
2023-03-11T04:59:17.453Z,98.10
2023-03-11T05:00:17.434Z,98.31
2023-03-11T05:01:17.447Z,98.37
2023-03-11T05:02:17.432Z,98.47
2023-03-11T05:03:17.415Z,98.41
2023-03-11T05:04:17.376Z,98.26
2023-03-11T05:05:17.347Z,98.47
2023-03-11T05:06:17.321Z,98.47
2023-03-11T05:07:17.322Z,98.37
2023-03-11T05:08:17.306Z,98.47
2023-03-11T05:09:17.255Z,98.37
2023-03-11T05:10:17.244Z,98.68
2023-03-11T05:11:17.222Z,98.58
2023-03-11T05:12:17.231Z,98.47
2023-03-11T05:13:17.191Z,98.47
2023-03-11T05:14:17.162Z,98.47
2023-03-11T05:15:17.140Z,98.05
2023-03-11T05:16:17.166Z,97.36
2023-03-11T05:17:17.132Z,98.62
2023-03-11T05:18:17.087Z,98.72
2023-03-11T05:19:17.557Z,98.37
2023-03-11T05:20:17.055Z,98.47
2023-03-11T05:21:17.026Z,98.37
2023-03-11T05:22:17.036Z,98.47
2023-03-11T05:23:16.986Z,98.47
2023-03-11T05:24:16.966Z,98.68
2023-03-11T05:25:16.949Z,98.37
2023-03-11T05:26:16.929Z,98.37
2023-03-11T05:27:16.956Z,98.58
2023-03-11T05:28:16.889Z,98.47
2023-03-11T05:29:16.871Z,98.47
2023-03-11T05:30:16.855Z,98.26
2023-03-11T05:31:16.925Z,98.68
2023-03-11T05:32:16.899Z,98.58
2023-03-11T05:33:16.807Z,98.16
2023-03-11T05:34:16.785Z,97.63
2023-03-11T05:35:16.763Z,97.38
2023-03-11T05:36:16.752Z,97.32
2023-03-11T05:37:16.758Z,97.11
2023-03-11T05:38:16.713Z,96.90
2023-03-11T05:39:16.699Z,96.69
2023-03-11T05:40:16.680Z,97.42
2023-03-11T05:41:16.659Z,97.53
2023-03-11T05:42:16.662Z,96.80
2023-03-11T05:43:16.619Z,97.42
2023-03-11T05:44:16.686Z,97.11
2023-03-11T05:45:16.587Z,96.59
2023-03-11T05:46:16.643Z,97.22
2023-03-11T05:47:16.847Z,97.00
2023-03-11T05:48:16.516Z,96.90
2023-03-11T05:49:16.519Z,96.80
2023-03-11T05:50:16.492Z,97.11
2023-03-11T05:51:16.476Z,97.11
2023-03-11T05:52:16.482Z,97.22
2023-03-11T05:53:16.432Z,97.00
2023-03-11T05:54:16.409Z,96.90
2023-03-11T05:55:16.387Z,96.80
2023-03-11T05:56:16.384Z,97.22
2023-03-11T05:57:17.348Z,96.69
2023-03-11T05:58:16.346Z,96.94
2023-03-11T05:59:16.704Z,97.47
2023-03-11T06:00:17.293Z,97.78
2023-03-11T06:01:16.280Z,98.37
2023-03-11T06:02:16.289Z,98.05
2023-03-11T06:03:16.241Z,98.62
2023-03-11T06:04:16.315Z,97.47
2023-03-11T06:05:16.353Z,97.68
2023-03-11T06:06:16.188Z,98.72
2023-03-11T06:07:16.265Z,98.52
2023-03-11T06:08:16.161Z,98.05
2023-03-11T06:09:16.124Z,97.74
2023-03-11T06:10:16.130Z,96.90
2023-03-11T06:11:16.099Z,97.22
2023-03-11T06:12:16.093Z,97.32
2023-03-11T06:13:16.047Z,97.22
2023-03-11T06:14:16.031Z,97.00
2023-03-11T06:15:16.059Z,97.11
2023-03-11T06:16:16.035Z,97.11
2023-03-11T06:17:16.011Z,97.32
2023-03-11T06:18:15.960Z,97.53
2023-03-11T06:19:15.937Z,97.11
2023-03-11T06:20:15.922Z,97.11
2023-03-11T06:21:15.902Z,97.11
2023-03-11T06:22:15.904Z,96.96
2023-03-11T06:23:15.854Z,97.17
2023-03-11T06:24:15.846Z,97.32
2023-03-11T06:25:15.819Z,97.42
2023-03-11T06:26:15.804Z,97.32
2023-03-11T06:27:15.806Z,97.74
2023-03-11T06:28:15.815Z,97.22
2023-03-11T06:29:15.746Z,96.90
2023-03-11T06:30:15.731Z,96.80
2023-03-11T06:31:15.786Z,97.32
2023-03-11T06:32:15.711Z,97.22
2023-03-11T06:33:15.697Z,96.80
2023-03-11T06:34:15.640Z,96.96
2023-03-11T06:35:16.639Z,96.44
2023-03-11T06:36:15.616Z,96.12
2023-03-11T06:37:15.594Z,96.06
2023-03-11T06:38:15.604Z,94.87
2023-03-11T06:39:15.593Z,94.56
2023-03-11T06:40:15.549Z,94.24
2023-03-11T06:41:15.513Z,94.03
2023-03-11T06:42:15.499Z,93.51
2023-03-11T06:43:15.509Z,93.40
2023-03-11T06:44:15.451Z,93.30
2023-03-11T06:45:15.429Z,92.67
2023-03-11T06:46:15.469Z,92.67
2023-03-11T06:47:15.392Z,92.14
2023-03-11T06:48:15.398Z,92.25
2023-03-11T06:49:15.348Z,91.62
2023-03-11T06:50:15.340Z,91.62
2023-03-11T06:51:15.311Z,91.27
2023-03-11T06:52:15.297Z,91.62
2023-03-11T06:53:15.308Z,91.37
2023-03-11T06:54:15.258Z,91.89
2023-03-11T06:55:15.241Z,91.89
2023-03-11T06:56:15.226Z,91.16
2023-03-11T06:57:15.199Z,91.37
2023-03-11T06:58:15.206Z,91.89
2023-03-11T06:59:15.163Z,91.89
2023-03-11T07:00:15.234Z,91.37
2023-03-11T07:01:15.181Z,91.37
2023-03-11T07:02:15.107Z,91.37
2023-03-11T07:03:15.118Z,90.74
2023-03-11T07:04:15.154Z,91.16
2023-03-11T07:05:15.049Z,91.37
2023-03-11T07:06:15.036Z,90.28
2023-03-11T07:07:15.021Z,90.39
2023-03-11T07:08:15.018Z,91.02
2023-03-11T07:09:14.978Z,90.91
2023-03-11T07:10:14.970Z,91.12
2023-03-11T07:11:14.949Z,89.97
2023-03-11T07:12:14.946Z,89.76
2023-03-11T07:13:15.383Z,89.40
2023-03-11T07:14:14.894Z,89.40
2023-03-11T07:15:15.865Z,89.30
2023-03-11T07:16:15.507Z,89.36
2023-03-11T07:17:14.822Z,89.26
2023-03-11T07:18:14.837Z,89.01
2023-03-11T07:19:14.781Z,88.07
2023-03-11T07:20:16.481Z,87.86
2023-03-11T07:21:14.754Z,87.55
2023-03-11T07:22:14.744Z,87.26
2023-03-11T07:23:14.744Z,85.59
2023-03-11T07:24:15.231Z,84.70
2023-03-11T07:25:14.681Z,79.61
2023-03-11T07:26:15.403Z,74.32
2023-03-11T07:27:15.206Z,70.20
2023-03-11T07:28:14.657Z,67.39
2023-03-11T07:29:15.090Z,63.97
2023-03-11T07:30:14.738Z,64.00
2023-03-11T07:31:14.586Z,61.55
2023-03-11T07:32:14.585Z,57.43
2023-03-11T07:33:14.559Z,56.10
2023-03-11T07:34:14.507Z,56.92
2023-03-11T07:35:14.495Z,55.92
2023-03-11T07:36:14.481Z,54.36
2023-03-11T07:37:14.474Z,52.65
2023-03-11T07:38:14.468Z,52.62
2023-03-11T07:39:14.877Z,51.35
2023-03-11T07:40:14.392Z,50.58
2023-03-11T07:41:14.375Z,51.68
2023-03-11T07:42:14.990Z,49.05
2023-03-11T07:43:15.071Z,49.44
2023-03-11T07:44:14.319Z,48.82
2023-03-11T07:45:14.295Z,51.50
2023-03-11T07:46:14.323Z,51.09
2023-03-11T07:47:14.240Z,52.39
2023-03-11T07:48:14.856Z,50.68
2023-03-11T07:49:14.208Z,52.83
2023-03-11T07:50:14.196Z,51.60
2023-03-11T07:51:14.169Z,51.35
2023-03-11T07:52:14.157Z,50.59
2023-03-11T07:53:14.168Z,48.75
2023-03-11T07:54:14.120Z,48.77
2023-03-11T07:55:14.095Z,50.94
2023-03-11T07:56:14.094Z,50.74
2023-03-11T07:57:14.066Z,50.81
2023-03-11T07:58:14.078Z,52.70
2023-03-11T07:59:14.017Z,51.54
2023-03-11T08:00:14.022Z,51.37
2023-03-11T08:01:13.984Z,53.03
2023-03-11T08:02:14.062Z,53.75
2023-03-11T08:03:14.004Z,54.79
2023-03-11T08:04:14.776Z,54.03
2023-03-11T08:05:14.903Z,53.49
2023-03-11T08:06:13.890Z,52.01
2023-03-11T08:07:13.874Z,51.43
2023-03-11T08:08:13.874Z,50.31
2023-03-11T08:09:13.848Z,48.03
2023-03-11T08:10:13.820Z,47.70
2023-03-11T08:11:13.810Z,48.56
2023-03-11T08:12:13.784Z,47.71
2023-03-11T08:13:13.791Z,49.40
2023-03-11T08:14:13.744Z,53.36
2023-03-11T08:15:13.730Z,56.02
2023-03-11T08:16:13.740Z,57.93
2023-03-11T08:17:13.694Z,59.86
2023-03-11T08:18:13.704Z,60.85
2023-03-11T08:19:13.666Z,61.94
2023-03-11T08:20:13.646Z,61.76
2023-03-11T08:21:13.615Z,64.61
2023-03-11T08:22:13.596Z,66.50
2023-03-11T08:23:13.601Z,66.94
2023-03-11T08:24:13.552Z,67.67
2023-03-11T08:25:13.530Z,66.69
2023-03-11T08:26:13.514Z,68.77
2023-03-11T08:27:13.486Z,69.11
2023-03-11T08:28:13.500Z,68.25
2023-03-11T08:29:13.445Z,68.70
2023-03-11T08:30:13.431Z,68.90
2023-03-11T08:31:13.461Z,68.83
2023-03-11T08:32:13.432Z,68.90
2023-03-11T08:33:13.403Z,69.73
2023-03-11T08:34:13.333Z,70.45
2023-03-11T08:35:13.311Z,70.56
2023-03-11T08:36:13.345Z,70.48
2023-03-11T08:37:13.275Z,70.62
2023-03-11T08:38:13.301Z,71.55
2023-03-11T08:39:13.270Z,72.04
2023-03-11T08:40:13.207Z,71.97
2023-03-11T08:41:13.200Z,72.69
2023-03-11T08:42:13.180Z,72.90
2023-03-11T08:43:13.193Z,71.66
2023-03-11T08:44:13.139Z,71.83
2023-03-11T08:45:13.142Z,71.52
2023-03-11T08:46:13.122Z,71.14
2023-03-11T08:47:13.079Z,71.34
2023-03-11T08:48:14.112Z,72.04
2023-03-11T08:49:13.061Z,71.42
2023-03-11T08:50:13.052Z,70.66
2023-03-11T08:51:13.023Z,70.97
2023-03-11T08:52:13.011Z,70.76
2023-03-11T08:53:13.022Z,70.21
2023-03-11T08:54:12.974Z,70.10
2023-03-11T08:55:12.957Z,70.70
2023-03-11T08:56:12.937Z,69.38
2023-03-11T08:57:13.921Z,69.56
2023-03-11T08:58:12.949Z,70.25
2023-03-11T08:59:12.882Z,69.84
2023-03-11T09:00:13.303Z,69.60
2023-03-11T09:01:13.869Z,67.70
2023-03-11T09:02:12.832Z,68.94
2023-03-11T09:03:12.850Z,68.70
2023-03-11T09:04:12.798Z,68.49
2023-03-11T09:05:12.779Z,66.87
2023-03-11T09:06:12.845Z,66.74
2023-03-11T09:07:12.740Z,65.70
2023-03-11T09:08:12.746Z,64.74
2023-03-11T09:09:12.705Z,64.71
2023-03-11T09:10:12.686Z,63.99
2023-03-11T09:11:12.662Z,63.12
2023-03-11T09:12:14.436Z,64.46
2023-03-11T09:13:12.661Z,65.91
2023-03-11T09:14:12.644Z,65.94
2023-03-11T09:15:12.592Z,65.14
2023-03-11T09:16:12.594Z,67.03
2023-03-11T09:17:12.578Z,66.03
2023-03-11T09:18:12.775Z,66.89
2023-03-11T09:19:12.518Z,68.34
2023-03-11T09:20:12.501Z,69.04
2023-03-11T09:21:12.656Z,68.31
2023-03-11T09:22:12.463Z,66.75
2023-03-11T09:23:12.481Z,68.31
2023-03-11T09:24:12.422Z,67.58
2023-03-11T09:25:13.514Z,67.17
2023-03-11T09:26:12.412Z,66.27
2023-03-11T09:27:12.381Z,67.10
2023-03-11T09:28:12.401Z,68.62
2023-03-11T09:29:12.357Z,66.68
2023-03-11T09:30:12.329Z,66.78
2023-03-11T09:31:12.336Z,69.07
2023-03-11T09:32:12.304Z,68.65
2023-03-11T09:33:12.306Z,69.07
2023-03-11T09:34:13.927Z,69.79
2023-03-11T09:35:13.289Z,68.86
2023-03-11T09:36:12.224Z,68.76
2023-03-11T09:37:12.212Z,68.86
2023-03-11T09:38:12.228Z,68.93
2023-03-11T09:39:12.169Z,67.82
2023-03-11T09:40:12.185Z,68.31
2023-03-11T09:41:12.135Z,67.90
2023-03-11T09:42:12.127Z,68.65
2023-03-11T09:43:12.197Z,69.69
2023-03-11T09:44:12.129Z,69.48
2023-03-11T09:45:12.073Z,68.34
2023-03-11T09:46:12.168Z,67.79
2023-03-11T09:47:12.112Z,69.48
2023-03-11T09:48:12.121Z,70.00
2023-03-11T09:49:12.037Z,69.27
2023-03-11T09:50:11.988Z,69.06
2023-03-11T09:51:11.965Z,69.17
2023-03-11T09:52:11.945Z,70.00
2023-03-11T09:53:11.941Z,70.20
2023-03-11T09:54:11.942Z,69.76
2023-03-11T09:55:11.904Z,69.71
2023-03-11T09:56:11.887Z,70.20
2023-03-11T09:57:11.861Z,71.45
2023-03-11T09:58:11.844Z,70.83
2023-03-11T09:59:11.846Z,70.17
2023-03-11T10:00:12.814Z,69.96
2023-03-11T10:01:11.827Z,69.03
2023-03-11T10:02:11.785Z,68.72
2023-03-11T10:03:11.823Z,68.82
2023-03-11T10:04:11.770Z,68.93
2023-03-11T10:05:11.725Z,68.51
2023-03-11T10:06:11.701Z,67.13
2023-03-11T10:07:11.685Z,68.62
2023-03-11T10:08:11.686Z,68.93
2023-03-11T10:09:11.678Z,68.41
2023-03-11T10:10:12.240Z,70.35
2023-03-11T10:11:11.615Z,69.48
2023-03-11T10:12:11.599Z,69.14
2023-03-11T10:13:11.584Z,67.20
2023-03-11T10:14:11.594Z,67.72
2023-03-11T10:15:11.551Z,66.68
2023-03-11T10:16:11.560Z,66.03
2023-03-11T10:17:11.515Z,67.38
2023-03-11T10:18:11.497Z,67.97
2023-03-11T10:19:11.503Z,67.11
2023-03-11T10:20:11.453Z,66.38
2023-03-11T10:21:11.440Z,66.38
2023-03-11T10:22:11.419Z,66.69
2023-03-11T10:23:11.405Z,66.56
2023-03-11T10:24:11.411Z,66.25
2023-03-11T10:25:11.374Z,64.49
2023-03-11T10:26:11.352Z,66.25
2023-03-11T10:27:11.346Z,65.01
2023-03-11T10:28:11.319Z,64.70
2023-03-11T10:29:11.329Z,65.14
2023-03-11T10:30:11.290Z,65.77
2023-03-11T10:31:11.271Z,65.63
2023-03-11T10:32:11.255Z,66.15
2023-03-11T10:33:11.231Z,65.08
2023-03-11T10:34:11.780Z,67.22
2023-03-11T10:35:11.195Z,64.23
2023-03-11T10:36:11.224Z,64.95
2023-03-11T10:37:11.160Z,64.84
2023-03-11T10:38:11.147Z,64.67
2023-03-11T10:39:11.660Z,63.79
2023-03-11T10:40:11.144Z,64.34
2023-03-11T10:41:11.091Z,66.00
2023-03-11T10:42:11.076Z,65.97
2023-03-11T10:43:11.066Z,66.80
2023-03-11T10:44:11.044Z,68.53
2023-03-11T10:45:11.056Z,64.90
2023-03-11T10:46:11.084Z,64.77
2023-03-11T10:47:10.989Z,66.09
2023-03-11T10:48:10.967Z,65.05
2023-03-11T10:49:10.983Z,65.99
2023-03-11T10:50:10.935Z,63.92
2023-03-11T10:51:10.914Z,63.29
2023-03-11T10:52:10.896Z,63.65
2023-03-11T10:53:10.876Z,63.72
2023-03-11T10:54:10.886Z,64.00
2023-03-11T10:55:10.838Z,64.49
2023-03-11T10:56:10.825Z,62.84
2023-03-11T10:57:10.804Z,63.97
2023-03-11T10:58:10.791Z,62.06
2023-03-11T10:59:10.808Z,61.85
2023-03-11T11:00:10.757Z,62.37
2023-03-11T11:01:10.768Z,59.97
2023-03-11T11:02:10.718Z,60.31
2023-03-11T11:03:11.705Z,62.84
2023-03-11T11:04:10.745Z,61.80
2023-03-11T11:05:10.701Z,61.83
2023-03-11T11:06:10.660Z,61.27
2023-03-11T11:07:10.644Z,64.20
2023-03-11T11:08:10.623Z,64.61
2023-03-11T11:09:10.638Z,62.67
2023-03-11T11:10:10.591Z,63.74
2023-03-11T11:11:10.575Z,62.42
2023-03-11T11:12:10.557Z,64.31
2023-03-11T11:13:10.543Z,64.55
2023-03-11T11:14:10.575Z,65.07
2023-03-11T11:15:10.508Z,65.20
2023-03-11T11:16:10.550Z,65.80
2023-03-11T11:17:10.474Z,66.38
2023-03-11T11:18:10.455Z,65.97
2023-03-11T11:19:10.465Z,65.84
2023-03-11T11:20:10.420Z,65.50
2023-03-11T11:21:10.402Z,63.99
2023-03-11T11:22:10.378Z,64.48
2023-03-11T11:23:10.408Z,63.31
2023-03-11T11:24:10.395Z,62.59
2023-03-11T11:25:10.410Z,61.04
2023-03-11T11:26:10.317Z,60.86
2023-03-11T11:27:10.300Z,60.44
2023-03-11T11:28:10.276Z,62.17
2023-03-11T11:29:10.262Z,60.42
2023-03-11T11:30:10.279Z,61.38
2023-03-11T11:31:10.307Z,62.07
2023-03-11T11:32:10.213Z,62.30
2023-03-11T11:33:10.202Z,62.54
2023-03-11T11:34:10.209Z,62.02
2023-03-11T11:35:10.161Z,62.57
2023-03-11T11:36:10.146Z,61.69
2023-03-11T11:37:10.155Z,62.29
2023-03-11T11:38:10.109Z,62.49
2023-03-11T11:39:10.119Z,62.52
2023-03-11T11:40:11.294Z,61.59
2023-03-11T11:41:12.058Z,63.46
2023-03-11T11:42:10.041Z,60.97
2023-03-11T11:43:10.029Z,63.50
2023-03-11T11:44:10.029Z,63.40
2023-03-11T11:45:09.982Z,61.71
2023-03-11T11:46:10.003Z,60.65
2023-03-11T11:47:09.953Z,59.95
2023-03-11T11:48:09.931Z,58.61
2023-03-11T11:49:09.947Z,60.78
2023-03-11T11:50:09.897Z,61.10
2023-03-11T11:51:09.880Z,59.47
2023-03-11T11:52:09.863Z,61.85
2023-03-11T11:53:09.842Z,63.16
2023-03-11T11:54:09.866Z,61.82
2023-03-11T11:55:09.809Z,65.99
2023-03-11T11:56:09.787Z,64.67
2023-03-11T11:57:09.779Z,62.21
2023-03-11T11:58:09.759Z,62.08
2023-03-11T11:59:09.773Z,62.05
2023-03-11T12:00:09.724Z,61.58
2023-03-11T12:01:09.713Z,62.20
2023-03-11T12:02:09.693Z,60.31
2023-03-11T12:03:09.677Z,60.14
2023-03-11T12:04:09.687Z,56.93
2023-03-11T12:05:09.704Z,58.04
2023-03-11T12:06:09.658Z,57.42
2023-03-11T12:07:09.608Z,58.04
2023-03-11T12:08:09.591Z,58.76
2023-03-11T12:09:09.603Z,58.87
2023-03-11T12:10:21.670Z,59.77
2023-03-11T12:11:11.546Z,57.91
2023-03-11T12:12:09.521Z,58.76
2023-03-11T12:13:09.499Z,58.25
2023-03-11T12:14:10.520Z,58.09
2023-03-11T12:15:09.477Z,57.79
2023-03-11T12:16:09.544Z,60.30
2023-03-11T12:17:09.446Z,61.90
2023-03-11T12:18:09.419Z,62.04
2023-03-11T12:19:09.442Z,63.56
2023-03-11T12:20:09.410Z,64.18
2023-03-11T12:21:09.369Z,63.46
2023-03-11T12:22:09.351Z,60.56
2023-03-11T12:23:09.330Z,61.38
2023-03-11T12:24:09.363Z,62.21
2023-03-11T12:25:09.303Z,61.67
2023-03-11T12:26:09.308Z,62.08
2023-03-11T12:27:09.259Z,60.91
2023-03-11T12:28:09.275Z,60.37
2023-03-11T12:29:09.263Z,59.03
2023-03-11T12:30:09.212Z,57.99
2023-03-11T12:31:09.221Z,58.09
2023-03-11T12:32:09.189Z,58.95
2023-03-11T12:33:09.164Z,59.94
2023-03-11T12:34:09.177Z,60.46
2023-03-11T12:35:09.131Z,60.56
2023-03-11T12:36:09.161Z,57.66
2023-03-11T12:37:09.096Z,58.80
2023-03-11T12:38:09.082Z,58.83
2023-03-11T12:39:09.100Z,59.06
2023-03-11T12:40:09.044Z,59.47
2023-03-11T12:41:09.048Z,59.99
2023-03-11T12:42:09.044Z,60.61
2023-03-11T12:43:08.995Z,60.10
2023-03-11T12:44:09.014Z,60.41
2023-03-11T12:45:08.973Z,61.10
2023-03-11T12:46:08.956Z,60.06
2023-03-11T12:47:08.957Z,59.63
2023-03-11T12:48:08.915Z,60.01
2023-03-11T12:49:09.178Z,59.47
2023-03-11T12:50:08.876Z,58.54
2023-03-11T12:51:08.860Z,58.61
2023-03-11T12:52:08.877Z,58.72